Mountain City, Georgia
Current Conditions -  °F | °C
As of 12:15 PM on Sunday 23 Nov 2014 (Local Time) from KTOC Reporting Station
Moderate Rain Moderate Rain  
Wind Chill: 46°   Ceiling: 400
Heat Index: 49°   Visibility: 3mi
Dew Point: 49°   Wind: 8mph
Humidity: 98%   Direction: 60°ENE
Pressure: 30"   Gusts: NA
Location:  34.92°N, 83.39°W
Report Text: KTOC 231715Z AUTO 06007KT 3SM RA BKN004 OVC009 10/09 A3000 RMK AO2 T00950092
Loading
Personal Weather Stations






























Interactive Weather Map New forecast layout! Learn more

10-Day Weather Forecast

Advertisements
Track Severe Weather on mobile